createdAt,value
2018-09-13T00:00:26.423Z,59.30
2018-09-13T00:05:31.926Z,60.00
2018-09-13T00:10:36.274Z,60.80
2018-09-13T00:15:40.464Z,63.30
2018-09-13T00:20:44.121Z,64.80
2018-09-13T00:25:49.055Z,61.50
2018-09-13T00:30:52.915Z,63.80
2018-09-13T00:35:57.424Z,64.00
2018-09-13T00:41:01.410Z,64.70
2018-09-13T00:46:05.683Z,66.60
2018-09-13T00:51:09.831Z,66.60
2018-09-13T00:56:13.515Z,67.20
2018-09-13T01:01:17.495Z,67.20
2018-09-13T01:06:22.078Z,68.60
2018-09-13T01:11:25.932Z,65.90
2018-09-13T01:16:29.951Z,69.00
2018-09-13T01:21:33.549Z,69.40
2018-09-13T01:26:37.661Z,69.60
2018-09-13T01:31:41.399Z,69.70
2018-09-13T01:36:45.121Z,71.00
2018-09-13T01:41:50.274Z,69.60
2018-09-13T01:46:54.040Z,70.80
2018-09-13T01:51:58.052Z,70.60
2018-09-13T01:57:02.160Z,70.40
2018-09-13T02:02:05.778Z,70.60
2018-09-13T02:07:09.686Z,71.00
2018-09-13T02:12:13.304Z,71.20
2018-09-13T02:17:16.907Z,71.50
2018-09-13T02:22:20.546Z,71.20
2018-09-13T02:27:24.321Z,71.30
2018-09-13T02:32:28.072Z,72.10
2018-09-13T02:37:31.874Z,71.90
2018-09-13T02:42:35.524Z,73.80
2018-09-13T02:47:39.852Z,73.90
2018-09-13T02:52:43.501Z,74.10
2018-09-13T02:57:47.608Z,73.40
2018-09-13T03:02:51.646Z,73.50
2018-09-13T03:07:55.509Z,74.00
2018-09-13T03:12:59.233Z,73.80
2018-09-13T03:18:03.009Z,73.40
2018-09-13T03:23:06.599Z,73.30
2018-09-13T03:28:10.320Z,73.50
2018-09-13T03:33:14.079Z,72.80
2018-09-13T03:38:17.722Z,72.80
2018-09-13T03:43:21.800Z,74.60
2018-09-13T03:48:25.408Z,74.30
2018-09-13T03:53:29.084Z,74.90
2018-09-13T03:58:32.688Z,74.40
2018-09-13T04:03:36.336Z,73.70
2018-09-13T04:08:40.162Z,73.70
2018-09-13T04:13:43.883Z,73.80
2018-09-13T04:18:48.950Z,74.80
2018-09-13T04:23:52.446Z,75.20
2018-09-13T04:28:56.040Z,73.90
2018-09-13T04:33:59.683Z,73.60
2018-09-13T04:39:04.163Z,74.30
2018-09-13T04:44:07.869Z,73.90
2018-09-13T04:49:11.650Z,73.50
2018-09-13T04:54:15.292Z,75.20
2018-09-13T04:59:18.844Z,73.40
2018-09-13T05:04:22.489Z,72.80
2018-09-13T05:09:26.095Z,73.30
2018-09-13T05:14:29.683Z,73.20
2018-09-13T05:19:33.315Z,73.20
2018-09-13T05:24:36.907Z,73.40
2018-09-13T05:29:40.492Z,73.70
2018-09-13T05:34:44.151Z,73.90
2018-09-13T05:39:47.995Z,72.80
2018-09-13T05:44:51.588Z,72.80
2018-09-13T05:49:56.932Z,73.30
2018-09-13T05:55:01.264Z,73.60
2018-09-13T06:00:05.461Z,73.80
2018-09-13T06:05:09.107Z,74.20
2018-09-13T06:10:12.844Z,73.30
2018-09-13T06:15:16.464Z,73.70
2018-09-13T06:20:20.181Z,74.00
2018-09-13T06:25:24.054Z,74.80
2018-09-13T06:30:27.660Z,74.80
2018-09-13T06:35:31.407Z,74.70
2018-09-13T06:40:35.135Z,74.60
2018-09-13T06:45:38.849Z,74.30
2018-09-13T06:50:42.496Z,74.00
2018-09-13T06:55:46.117Z,74.40
2018-09-13T07:00:49.803Z,74.80
2018-09-13T07:05:53.427Z,75.10
2018-09-13T07:10:57.227Z,74.60
2018-09-13T07:16:00.963Z,74.30
2018-09-13T07:21:04.730Z,74.20
2018-09-13T07:26:08.447Z,74.00
2018-09-13T07:31:12.108Z,73.50
2018-09-13T07:36:15.699Z,72.30
2018-09-13T07:41:19.744Z,70.60
2018-09-13T07:46:23.388Z,69.30
2018-09-13T07:51:27.219Z,70.40
2018-09-13T07:56:31.088Z,71.20
2018-09-13T08:01:34.731Z,71.80
2018-09-13T08:06:38.425Z,71.00
2018-09-13T08:11:42.297Z,69.90
2018-09-13T08:16:46.021Z,70.40
2018-09-13T08:21:49.707Z,70.00
2018-09-13T08:26:55.099Z,67.90
2018-09-13T08:31:59.569Z,66.70
2018-09-13T08:37:03.365Z,60.90
2018-09-13T08:42:06.912Z,52.20
2018-09-13T08:47:10.493Z,47.30
2018-09-13T08:52:14.158Z,43.00
2018-09-13T08:57:17.809Z,45.20
2018-09-13T09:02:21.435Z,44.40
2018-09-13T09:07:25.199Z,41.80
2018-09-13T09:12:28.921Z,40.80
2018-09-13T09:17:32.626Z,43.30
2018-09-13T09:22:36.353Z,45.40
2018-09-13T09:27:40.007Z,46.30
2018-09-13T09:32:43.628Z,48.10
2018-09-13T09:42:50.511Z,50.10
2018-09-13T09:47:54.291Z,51.10
2018-09-13T09:58:01.426Z,52.70
2018-09-13T10:03:05.062Z,52.80
2018-09-13T10:08:08.897Z,52.30
2018-09-13T10:13:12.538Z,51.40
2018-09-13T10:18:21.607Z,51.00
2018-09-13T10:23:30.627Z,50.20
2018-09-13T10:28:39.732Z,49.30
2018-09-13T10:33:49.403Z,48.90
2018-09-13T10:38:58.370Z,48.20
2018-09-13T10:44:07.920Z,48.10
2018-09-13T10:49:16.895Z,47.90
2018-09-13T10:54:29.550Z,48.20
2018-09-13T10:59:33.144Z,47.50
2018-09-13T11:04:37.264Z,47.20
2018-09-13T11:09:41.220Z,46.80
2018-09-13T11:19:56.736Z,44.10
2018-09-13T11:25:01.266Z,44.50
2018-09-13T11:30:05.771Z,43.10
2018-09-13T11:35:09.439Z,43.40
2018-09-13T11:40:13.474Z,43.80
2018-09-13T11:45:17.366Z,43.20
2018-09-13T11:50:21.150Z,43.60
2018-09-13T11:55:24.832Z,43.90
2018-09-13T12:05:32.367Z,44.30
2018-09-13T12:10:36.824Z,44.40
2018-09-13T12:15:41.111Z,44.30
2018-09-13T12:20:45.474Z,44.60
2018-09-13T12:25:50.088Z,43.90
2018-09-13T12:30:53.710Z,44.30
2018-09-13T12:35:57.639Z,44.90
2018-09-13T12:41:02.035Z,42.30
2018-09-13T12:51:10.112Z,42.30
2018-09-13T12:56:13.835Z,41.20
2018-09-13T13:01:19.140Z,42.00
2018-09-13T13:11:27.151Z,41.50
2018-09-13T13:16:32.444Z,41.80
2018-09-13T13:26:40.619Z,36.70
2018-09-13T13:31:50.964Z,36.00
2018-09-13T13:36:56.696Z,36.80
2018-09-13T13:42:00.398Z,34.20
2018-09-13T13:47:04.216Z,33.10
2018-09-13T13:52:11.140Z,33.80
2018-09-13T14:02:18.235Z,34.70
2018-09-13T14:07:22.046Z,35.10
2018-09-13T14:12:26.207Z,34.80
2018-09-13T14:17:32.392Z,34.50
2018-09-13T14:22:36.219Z,35.20
2018-09-13T14:27:42.030Z,34.40
2018-09-13T14:32:45.874Z,34.70
2018-09-13T14:52:59.725Z,37.30
2018-09-13T14:58:04.025Z,38.20
2018-09-13T15:03:07.858Z,39.20
2018-09-13T15:08:15.471Z,40.00
2018-09-13T15:13:19.112Z,40.60
2018-09-13T15:18:46.107Z,41.20
2018-09-13T15:24:02.086Z,41.90
2018-09-13T15:29:19.663Z,43.40
2018-09-13T15:34:41.533Z,43.60
2018-09-13T15:40:01.294Z,44.20
2018-09-13T15:45:39.854Z,45.50
2018-09-13T15:50:44.471Z,47.20
2018-09-13T15:55:48.480Z,49.60
2018-09-13T16:00:52.734Z,51.80
2018-09-13T16:05:56.415Z,52.60
2018-09-13T16:11:00.031Z,52.20
2018-09-13T16:16:03.681Z,51.90
2018-09-13T16:21:08.088Z,52.20
2018-09-13T16:26:11.662Z,52.50
2018-09-13T16:31:15.626Z,52.30
2018-09-13T16:36:22.727Z,52.20
2018-09-13T16:41:33.361Z,52.40
2018-09-13T16:46:43.143Z,51.70
2018-09-13T16:51:49.039Z,52.00
2018-09-13T16:56:53.653Z,53.10
2018-09-13T17:01:57.377Z,53.30
2018-09-13T17:07:01.129Z,52.80
2018-09-13T17:12:05.007Z,52.30
2018-09-13T17:17:08.681Z,54.10
2018-09-13T17:22:13.168Z,53.90
2018-09-13T17:27:23.236Z,53.70
2018-09-13T17:32:26.874Z,53.70
2018-09-13T17:37:30.771Z,53.80
2018-09-13T17:42:37.015Z,54.40
2018-09-13T17:47:40.834Z,55.50
2018-09-13T17:52:44.656Z,55.90
2018-09-13T17:57:48.463Z,55.60
2018-09-13T18:02:52.948Z,56.40
2018-09-13T18:07:56.829Z,56.80
2018-09-13T18:13:00.928Z,57.50
2018-09-13T18:18:05.199Z,58.10
2018-09-13T18:23:09.184Z,58.70
2018-09-13T18:28:13.381Z,61.50
2018-09-13T18:33:17.420Z,64.00
2018-09-13T18:38:21.886Z,64.80
2018-09-13T18:43:25.904Z,65.50
2018-09-13T18:48:29.773Z,66.70
2018-09-13T18:53:33.472Z,68.40
2018-09-13T18:58:37.155Z,68.00
2018-09-13T19:03:41.256Z,67.50
2018-09-13T19:08:45.303Z,67.80
2018-09-13T19:13:48.999Z,66.10
2018-09-13T19:18:54.334Z,66.00
2018-09-13T19:23:58.049Z,67.30
2018-09-13T19:29:01.587Z,67.90
2018-09-13T19:34:05.732Z,70.70
2018-09-13T19:39:11.020Z,73.20
2018-09-13T19:44:20.725Z,72.60
2018-09-13T19:49:25.943Z,73.60
2018-09-13T19:54:29.756Z,72.90
2018-09-13T19:59:33.652Z,71.90
2018-09-13T20:04:37.427Z,70.90
2018-09-13T20:09:41.440Z,71.30
2018-09-13T20:14:45.293Z,71.00
2018-09-13T20:19:49.052Z,69.30
2018-09-13T20:24:53.119Z,71.30
2018-09-13T20:29:57.612Z,72.10
2018-09-13T20:35:01.410Z,71.70
2018-09-13T20:40:06.932Z,70.60
2018-09-13T20:45:10.959Z,70.80
2018-09-13T20:50:14.616Z,71.00
2018-09-13T20:55:18.433Z,70.60
2018-09-13T21:00:22.272Z,67.60
2018-09-13T21:05:26.426Z,68.70
2018-09-13T21:10:30.132Z,67.00
2018-09-13T21:15:34.847Z,67.80
2018-09-13T21:20:38.892Z,68.00
2018-09-13T21:25:42.920Z,69.30
2018-09-13T21:30:47.764Z,66.90
2018-09-13T21:35:52.230Z,67.70
2018-09-13T21:40:56.885Z,71.30
2018-09-13T21:46:00.800Z,71.90
2018-09-13T21:51:05.343Z,71.90
2018-09-13T21:56:09.433Z,71.80
2018-09-13T22:01:13.996Z,72.50
2018-09-13T22:06:19.374Z,70.60
2018-09-13T22:11:24.963Z,70.90
2018-09-13T22:16:28.646Z,72.10
2018-09-13T22:21:32.607Z,71.30
2018-09-13T22:26:36.495Z,70.80
2018-09-13T22:31:40.170Z,71.50
2018-09-13T22:36:43.835Z,71.70
2018-09-13T22:41:47.546Z,71.50
2018-09-13T22:46:51.565Z,72.60
2018-09-13T22:51:55.199Z,73.00
2018-09-13T22:56:58.947Z,73.90
2018-09-13T23:02:03.221Z,74.20
2018-09-13T23:07:06.965Z,72.90
2018-09-13T23:12:10.979Z,73.50
2018-09-13T23:17:14.591Z,73.50
2018-09-13T23:22:18.290Z,70.70
2018-09-13T23:27:21.944Z,70.40
2018-09-13T23:32:25.852Z,71.20
2018-09-13T23:37:29.450Z,71.30
2018-09-13T23:42:33.232Z,70.30
2018-09-13T23:47:37.062Z,72.00
2018-09-13T23:52:40.728Z,73.50
2018-09-13T23:57:44.370Z,74.10
